createdAt,value
2017-10-26T00:00:05.681Z,23.33
2017-10-26T00:02:32.425Z,23.34
2017-10-26T00:04:58.159Z,23.29
2017-10-26T00:07:24.875Z,23.27
2017-10-26T00:09:51.567Z,23.29
2017-10-26T00:12:18.231Z,23.23
2017-10-26T00:14:43.958Z,23.18
2017-10-26T00:17:09.699Z,23.23
2017-10-26T00:19:36.447Z,23.22
2017-10-26T00:22:02.206Z,23.20
2017-10-26T00:24:28.985Z,23.26
2017-10-26T00:26:54.763Z,23.24
2017-10-26T00:29:21.456Z,23.21
2017-10-26T00:31:47.195Z,23.17
2017-10-26T00:34:12.925Z,23.19
2017-10-26T00:36:38.659Z,23.15
2017-10-26T00:39:04.432Z,23.13
2017-10-26T00:41:31.011Z,23.19
2017-10-26T00:43:56.755Z,23.23
2017-10-26T00:46:22.536Z,23.26
2017-10-26T00:48:48.320Z,23.26
2017-10-26T00:51:14.057Z,23.23
2017-10-26T00:53:39.787Z,23.19
2017-10-26T00:56:06.464Z,23.20
2017-10-26T00:58:32.203Z,23.11
2017-10-26T01:00:57.952Z,23.10
2017-10-26T01:03:23.687Z,23.14
2017-10-26T01:05:50.483Z,23.06
2017-10-26T01:08:16.219Z,23.21
2017-10-26T01:10:41.956Z,23.14
2017-10-26T01:13:07.695Z,23.14
2017-10-26T01:15:33.443Z,23.06
2017-10-26T01:17:59.170Z,23.15
2017-10-26T01:20:24.916Z,23.16
2017-10-26T01:22:50.667Z,23.14
2017-10-26T01:25:16.408Z,23.14
2017-10-26T01:27:42.153Z,23.14
2017-10-26T01:30:07.941Z,23.17
2017-10-26T01:32:33.691Z,23.14
2017-10-26T01:34:59.424Z,23.15
2017-10-26T01:37:25.160Z,23.06
2017-10-26T01:39:50.892Z,23.08
2017-10-26T01:42:16.945Z,23.10
2017-10-26T01:44:43.540Z,23.18
2017-10-26T01:47:09.287Z,23.11
2017-10-26T01:49:36.072Z,23.08
2017-10-26T01:52:02.802Z,23.15
2017-10-26T01:54:29.582Z,23.13
2017-10-26T01:56:55.327Z,23.07
2017-10-26T01:59:21.069Z,23.08
2017-10-26T02:01:47.742Z,23.08
2017-10-26T02:04:14.461Z,23.08
2017-10-26T02:06:41.192Z,23.09
2017-10-26T02:09:06.974Z,23.10
2017-10-26T02:11:33.598Z,23.16
2017-10-26T02:14:00.895Z,23.12
2017-10-26T02:16:27.493Z,23.10
2017-10-26T02:18:54.175Z,23.05
2017-10-26T02:21:19.968Z,23.02
2017-10-26T02:23:46.753Z,23.18
2017-10-26T02:26:13.399Z,23.07
2017-10-26T02:28:45.439Z,23.08
2017-10-26T02:31:18.056Z,23.12
2017-10-26T02:33:44.692Z,22.95
2017-10-26T02:36:10.424Z,23.07
2017-10-26T02:38:37.255Z,23.14
2017-10-26T02:41:03.532Z,23.03
2017-10-26T02:43:29.823Z,23.12
2017-10-26T02:45:55.667Z,23.07
2017-10-26T02:48:22.467Z,23.10
2017-10-26T02:50:49.156Z,23.13
2017-10-26T02:53:15.828Z,23.09
2017-10-26T02:55:42.547Z,23.14
2017-10-26T02:58:08.288Z,23.09
2017-10-26T03:00:34.972Z,22.95
2017-10-26T03:03:01.136Z,22.98
2017-10-26T03:05:27.663Z,23.02
2017-10-26T03:07:53.400Z,23.04
2017-10-26T03:10:20.173Z,23.05
2017-10-26T03:12:46.735Z,23.06
2017-10-26T03:15:13.407Z,23.01
2017-10-26T03:17:40.088Z,23.10
2017-10-26T03:20:05.821Z,23.06
2017-10-26T03:22:32.529Z,22.98
2017-10-26T03:24:59.227Z,23.02
2017-10-26T03:27:25.005Z,23.06
2017-10-26T03:29:51.701Z,23.08
2017-10-26T03:32:18.378Z,23.07
2017-10-26T03:34:44.113Z,23.13
2017-10-26T03:37:09.847Z,23.09
2017-10-26T03:39:36.543Z,23.05
2017-10-26T03:42:03.317Z,23.04
2017-10-26T03:44:29.902Z,23.07
2017-10-26T03:46:56.566Z,23.07
2017-10-26T03:49:23.309Z,23.09
2017-10-26T03:51:49.991Z,23.12
2017-10-26T03:54:15.723Z,23.06
2017-10-26T03:56:41.464Z,23.11
2017-10-26T03:59:07.208Z,23.09
2017-10-26T04:01:33.769Z,23.17
2017-10-26T04:04:01.205Z,23.04
2017-10-26T04:06:27.840Z,23.03
2017-10-26T04:08:54.569Z,22.98
2017-10-26T04:11:20.312Z,23.09
2017-10-26T04:13:46.048Z,23.07
2017-10-26T04:16:12.670Z,23.12
2017-10-26T04:18:38.411Z,23.19
2017-10-26T04:21:05.088Z,23.09
2017-10-26T04:23:31.651Z,23.02
2017-10-26T04:25:57.444Z,23.08
2017-10-26T04:28:23.187Z,23.07
2017-10-26T04:30:48.947Z,23.11
2017-10-26T04:33:14.719Z,23.09
2017-10-26T04:35:41.260Z,23.12
2017-10-26T04:38:07.960Z,23.10
2017-10-26T04:40:33.774Z,23.07
2017-10-26T04:42:59.511Z,23.09
2017-10-26T04:45:25.250Z,23.10
2017-10-26T04:47:51.023Z,23.15
2017-10-26T04:50:17.655Z,23.15
2017-10-26T04:52:44.347Z,23.21
2017-10-26T04:55:10.092Z,23.20
2017-10-26T04:57:35.839Z,23.30
2017-10-26T05:00:01.580Z,23.22
2017-10-26T05:02:27.320Z,23.26
2017-10-26T05:04:54.020Z,23.17
2017-10-26T05:07:19.781Z,23.19
2017-10-26T05:09:45.544Z,23.09
2017-10-26T05:12:12.191Z,23.14
2017-10-26T05:14:38.771Z,23.16
2017-10-26T05:17:04.531Z,23.15
2017-10-26T05:19:30.281Z,23.22
2017-10-26T05:21:56.035Z,23.13
2017-10-26T05:24:21.776Z,23.15
2017-10-26T05:26:47.509Z,23.12
2017-10-26T05:29:14.199Z,23.13
2017-10-26T05:31:39.936Z,23.12
2017-10-26T05:34:05.698Z,23.15
2017-10-26T05:36:31.633Z,23.19
2017-10-26T05:38:57.376Z,23.19
2017-10-26T05:41:23.171Z,23.13
2017-10-26T05:43:48.913Z,23.10
2017-10-26T05:46:14.788Z,23.09
2017-10-26T05:48:40.535Z,23.14
2017-10-26T05:51:06.291Z,23.14
2017-10-26T05:53:32.036Z,23.14
2017-10-26T05:55:57.806Z,23.11
2017-10-26T05:58:23.555Z,23.09
2017-10-26T06:00:49.316Z,23.10
2017-10-26T06:03:15.069Z,23.09
2017-10-26T06:05:40.816Z,23.06
2017-10-26T06:08:07.509Z,23.04
2017-10-26T06:10:34.267Z,23.06
2017-10-26T06:13:00.984Z,23.13
2017-10-26T06:15:27.659Z,23.05
2017-10-26T06:17:53.408Z,23.03
2017-10-26T06:20:19.165Z,23.08
2017-10-26T06:22:44.947Z,23.04
2017-10-26T06:25:10.691Z,23.12
2017-10-26T06:27:36.438Z,23.15
2017-10-26T06:30:02.180Z,23.09
2017-10-26T06:32:27.915Z,23.09
2017-10-26T06:34:53.693Z,23.05
2017-10-26T06:37:20.364Z,23.11
2017-10-26T06:39:46.164Z,23.10
2017-10-26T06:42:13.983Z,23.19
2017-10-26T06:44:39.728Z,23.04
2017-10-26T06:47:05.508Z,22.99
2017-10-26T06:49:31.269Z,23.07
2017-10-26T06:51:57.819Z,23.04
2017-10-26T06:54:23.564Z,23.05
2017-10-26T06:56:50.284Z,23.19
2017-10-26T06:59:16.142Z,23.15
2017-10-26T07:01:41.887Z,23.12
2017-10-26T07:04:07.639Z,23.14
2017-10-26T07:06:33.539Z,23.08
2017-10-26T07:08:59.287Z,23.21
2017-10-26T07:11:25.143Z,23.13
2017-10-26T07:13:50.880Z,23.13
2017-10-26T07:16:16.628Z,23.12
2017-10-26T07:18:43.243Z,23.18
2017-10-26T07:21:08.992Z,23.24
2017-10-26T07:23:34.739Z,23.33
2017-10-26T07:26:00.483Z,23.36
2017-10-26T07:28:27.242Z,23.35
2017-10-26T07:30:53.986Z,23.34
2017-10-26T07:33:20.716Z,23.37
2017-10-26T07:35:47.411Z,23.37
2017-10-26T07:38:13.152Z,23.40
2017-10-26T07:40:40.495Z,23.38
2017-10-26T07:43:06.941Z,23.35
2017-10-26T07:45:32.712Z,23.36
2017-10-26T07:47:58.447Z,23.35
2017-10-26T07:50:25.173Z,23.33
2017-10-26T07:52:50.941Z,23.35
2017-10-26T07:55:17.696Z,23.35
2017-10-26T07:57:44.428Z,23.28
2017-10-26T08:00:12.028Z,23.35
2017-10-26T08:02:37.775Z,23.31
2017-10-26T08:05:04.375Z,23.25
2017-10-26T08:07:30.125Z,23.25
2017-10-26T08:09:55.971Z,23.24
2017-10-26T08:12:22.784Z,23.32
2017-10-26T08:14:48.547Z,23.27
2017-10-26T08:17:15.164Z,23.28
2017-10-26T08:19:40.908Z,23.22
2017-10-26T08:22:06.691Z,23.16
2017-10-26T08:24:33.403Z,23.19
2017-10-26T08:27:00.135Z,23.25
2017-10-26T08:29:25.883Z,23.27
2017-10-26T08:31:52.851Z,23.26
2017-10-26T08:34:19.387Z,23.22
2017-10-26T08:36:45.180Z,23.19
2017-10-26T08:39:11.836Z,23.28
2017-10-26T08:41:38.650Z,23.21
2017-10-26T08:44:05.228Z,23.21
2017-10-26T08:46:30.991Z,23.23
2017-10-26T08:48:57.762Z,23.23
2017-10-26T08:51:23.570Z,23.25
2017-10-26T08:53:49.335Z,23.26
2017-10-26T08:56:15.084Z,23.25
2017-10-26T08:58:41.659Z,23.18
2017-10-26T09:01:07.415Z,23.18
2017-10-26T09:03:33.158Z,23.24
2017-10-26T09:05:58.908Z,23.24
2017-10-26T09:08:24.691Z,23.27
2017-10-26T09:10:50.459Z,23.29
2017-10-26T09:13:16.232Z,23.23
2017-10-26T09:15:41.998Z,23.20
2017-10-26T09:18:07.762Z,23.17
2017-10-26T09:20:33.522Z,23.25
2017-10-26T09:22:59.446Z,23.22
2017-10-26T09:25:25.215Z,23.24
2017-10-26T09:27:50.979Z,23.22
2017-10-26T09:30:18.239Z,23.19
2017-10-26T09:32:44.018Z,23.20
2017-10-26T09:35:09.767Z,23.29
2017-10-26T09:37:35.544Z,23.34
2017-10-26T09:40:01.312Z,23.29
2017-10-26T09:42:27.124Z,23.31
2017-10-26T09:44:52.884Z,23.28
2017-10-26T09:47:18.639Z,23.28
2017-10-26T09:49:44.397Z,23.32
2017-10-26T09:52:10.142Z,23.28
2017-10-26T09:54:35.887Z,23.33
2017-10-26T09:57:01.632Z,23.34
2017-10-26T09:59:27.418Z,23.29
2017-10-26T10:01:53.169Z,23.30
2017-10-26T10:04:19.811Z,23.21
2017-10-26T10:06:46.386Z,23.29
2017-10-26T10:09:13.004Z,23.19
2017-10-26T10:11:38.815Z,23.26
2017-10-26T10:14:05.486Z,23.23
2017-10-26T10:16:32.280Z,23.26
2017-10-26T10:18:58.851Z,23.25
2017-10-26T10:21:24.601Z,23.27
2017-10-26T10:23:51.273Z,23.20
2017-10-26T10:26:17.835Z,23.25
2017-10-26T10:28:44.638Z,23.24
2017-10-26T10:31:10.371Z,23.19
2017-10-26T10:33:36.168Z,23.22
2017-10-26T10:36:02.829Z,23.27
2017-10-26T10:38:29.152Z,23.30
2017-10-26T10:40:55.717Z,23.27
2017-10-26T10:43:22.428Z,23.29
2017-10-26T10:45:48.303Z,23.20
2017-10-26T10:48:14.073Z,23.22
2017-10-26T10:50:40.920Z,23.21
2017-10-26T10:53:07.675Z,23.33
2017-10-26T10:55:34.448Z,23.30
2017-10-26T10:58:01.143Z,23.24
2017-10-26T11:00:32.887Z,23.29
2017-10-26T11:02:59.509Z,23.22
2017-10-26T11:05:25.258Z,23.26
2017-10-26T11:07:51.980Z,23.24
2017-10-26T11:10:19.337Z,23.25
2017-10-26T11:12:46.005Z,23.23
2017-10-26T11:15:12.695Z,23.21
2017-10-26T11:17:39.321Z,23.22
2017-10-26T11:20:06.040Z,23.21
2017-10-26T11:22:31.801Z,23.26
2017-10-26T11:24:58.371Z,23.21
2017-10-26T11:27:24.368Z,23.29
2017-10-26T11:29:51.124Z,23.23
2017-10-26T11:32:16.875Z,23.27
2017-10-26T11:34:42.663Z,23.27
2017-10-26T11:37:08.416Z,23.45
2017-10-26T11:39:35.196Z,23.29
2017-10-26T11:42:02.044Z,23.39
2017-10-26T11:44:28.816Z,23.40
2017-10-26T11:46:55.425Z,23.46
2017-10-26T11:49:22.178Z,23.55
2017-10-26T11:51:48.743Z,23.52
2017-10-26T11:54:14.819Z,23.57
2017-10-26T11:56:40.607Z,23.57
2017-10-26T11:59:06.355Z,23.52
2017-10-26T12:01:33.128Z,23.52
2017-10-26T12:03:59.856Z,23.52
2017-10-26T12:06:25.610Z,23.54
2017-10-26T12:08:52.393Z,23.51
2017-10-26T12:11:18.298Z,23.48
2017-10-26T12:13:44.085Z,23.39
2017-10-26T12:16:09.939Z,23.49
2017-10-26T12:18:36.675Z,23.43
2017-10-26T12:21:02.420Z,23.44
2017-10-26T12:23:29.156Z,23.49
2017-10-26T12:25:54.904Z,23.39
2017-10-26T12:28:20.648Z,23.46
2017-10-26T12:30:46.405Z,23.44
2017-10-26T12:33:12.204Z,23.39
2017-10-26T12:35:37.961Z,23.42
2017-10-26T12:38:03.768Z,23.41
2017-10-26T12:40:30.525Z,23.37
2017-10-26T12:42:57.404Z,23.32
2017-10-26T12:45:23.152Z,23.37
2017-10-26T12:47:49.072Z,23.37
2017-10-26T12:50:14.815Z,23.37
2017-10-26T12:52:41.579Z,23.40
2017-10-26T12:55:07.336Z,23.39
2017-10-26T12:57:33.084Z,23.39
2017-10-26T12:59:58.828Z,23.45
2017-10-26T13:02:24.587Z,23.34
2017-10-26T13:04:50.501Z,23.37
2017-10-26T13:07:16.255Z,23.35
2017-10-26T13:09:42.025Z,23.35
2017-10-26T13:12:07.778Z,23.40
2017-10-26T13:14:33.568Z,23.38
2017-10-26T13:17:00.183Z,23.37
2017-10-26T13:19:25.927Z,23.44
2017-10-26T13:21:51.681Z,23.38
2017-10-26T13:24:18.245Z,23.36
2017-10-26T13:26:44.041Z,23.34
2017-10-26T13:29:10.604Z,23.35
2017-10-26T13:31:36.346Z,23.38
2017-10-26T13:34:02.094Z,23.38
2017-10-26T13:36:27.835Z,23.35
2017-10-26T13:38:53.780Z,23.25
2017-10-26T13:41:19.520Z,23.32
2017-10-26T13:43:46.102Z,23.41
2017-10-26T13:46:11.885Z,23.38
2017-10-26T13:48:38.584Z,23.47
2017-10-26T13:51:04.339Z,23.37
2017-10-26T13:53:30.130Z,23.45
2017-10-26T13:55:55.880Z,23.39
2017-10-26T13:58:21.624Z,23.46
2017-10-26T14:00:48.043Z,23.38
2017-10-26T14:03:13.779Z,23.36
2017-10-26T14:05:39.512Z,23.32
2017-10-26T14:08:05.256Z,23.39
2017-10-26T14:10:31.020Z,23.42
2017-10-26T14:12:57.709Z,23.39
2017-10-26T14:15:24.422Z,23.41
2017-10-26T14:17:50.179Z,23.38
2017-10-26T14:20:17.336Z,23.37
2017-10-26T14:22:44.064Z,23.32
2017-10-26T14:25:10.771Z,23.35
2017-10-26T14:27:38.024Z,23.35
2017-10-26T14:30:03.779Z,23.34
2017-10-26T14:32:30.510Z,23.35
2017-10-26T14:34:57.223Z,23.39
2017-10-26T14:37:23.959Z,23.40
2017-10-26T14:39:50.660Z,23.48
2017-10-26T14:42:17.355Z,23.40
2017-10-26T14:44:44.039Z,23.34
2017-10-26T14:47:10.652Z,23.42
2017-10-26T14:49:37.943Z,23.35
2017-10-26T14:52:04.766Z,23.37
2017-10-26T14:54:31.557Z,23.38
2017-10-26T14:56:57.296Z,23.40
2017-10-26T14:59:23.936Z,23.41
2017-10-26T15:01:49.709Z,23.42
2017-10-26T15:04:15.579Z,23.46
2017-10-26T15:06:41.319Z,23.60
2017-10-26T15:09:07.064Z,23.67
2017-10-26T15:11:33.627Z,23.64
2017-10-26T15:13:59.384Z,23.62
2017-10-26T15:16:26.075Z,23.57
2017-10-26T15:18:51.864Z,23.58
2017-10-26T15:21:18.734Z,23.60
2017-10-26T15:23:45.455Z,23.48
2017-10-26T15:26:12.235Z,23.51
2017-10-26T15:28:38.032Z,23.52
2017-10-26T15:31:03.782Z,23.47
2017-10-26T15:33:30.569Z,23.47
2017-10-26T15:35:57.379Z,23.36
2017-10-26T15:38:24.099Z,23.44
2017-10-26T15:40:49.898Z,23.39
2017-10-26T15:43:15.647Z,23.47
2017-10-26T15:45:41.433Z,23.42
2017-10-26T15:48:07.512Z,23.42
2017-10-26T15:50:34.187Z,23.57
2017-10-26T15:52:59.944Z,23.48
2017-10-26T15:55:25.769Z,23.41
2017-10-26T15:57:52.528Z,23.47
2017-10-26T16:00:20.479Z,23.43
2017-10-26T16:02:47.449Z,23.34
2017-10-26T16:05:13.214Z,23.34
2017-10-26T16:07:38.955Z,23.37
2017-10-26T16:10:05.372Z,23.34
2017-10-26T16:12:31.129Z,23.39
2017-10-26T16:14:56.871Z,23.37
2017-10-26T16:17:23.550Z,23.41
2017-10-26T16:19:50.482Z,23.38
2017-10-26T16:22:17.079Z,23.36
2017-10-26T16:24:42.855Z,23.39
2017-10-26T16:27:08.600Z,23.38
2017-10-26T16:29:36.303Z,23.38
2017-10-26T16:32:02.697Z,23.36
2017-10-26T16:34:28.541Z,23.36
2017-10-26T16:36:56.106Z,23.41
2017-10-26T16:39:21.962Z,23.45
2017-10-26T16:41:48.527Z,23.39
2017-10-26T16:44:14.294Z,23.37
2017-10-26T16:46:40.058Z,23.34
2017-10-26T16:49:05.803Z,23.34
2017-10-26T16:51:31.575Z,23.43
2017-10-26T16:53:57.332Z,23.34
2017-10-26T16:56:23.100Z,23.38
2017-10-26T16:58:48.848Z,23.38
2017-10-26T17:01:14.612Z,23.36
2017-10-26T17:03:40.505Z,23.36
2017-10-26T17:06:06.303Z,23.39
2017-10-26T17:08:32.269Z,23.30
2017-10-26T17:10:58.026Z,23.30
2017-10-26T17:13:23.815Z,23.31
2017-10-26T17:15:49.593Z,23.36
2017-10-26T17:18:15.348Z,23.32
2017-10-26T17:20:41.130Z,23.31
2017-10-26T17:23:06.925Z,23.35
2017-10-26T17:25:32.676Z,23.34
2017-10-26T17:27:58.953Z,23.33
2017-10-26T17:30:25.677Z,23.36
2017-10-26T17:32:52.576Z,23.37
2017-10-26T17:35:18.332Z,23.34
2017-10-26T17:37:45.004Z,23.35
2017-10-26T17:40:10.752Z,23.34
2017-10-26T17:42:36.504Z,23.27
2017-10-26T17:45:02.431Z,23.32
2017-10-26T17:47:28.836Z,23.36
2017-10-26T17:49:54.680Z,23.35
2017-10-26T17:52:20.456Z,23.35
2017-10-26T17:54:46.232Z,23.39
2017-10-26T17:57:12.792Z,23.36
2017-10-26T17:59:38.556Z,23.36
2017-10-26T18:02:05.228Z,23.39
2017-10-26T18:04:31.840Z,23.28
2017-10-26T18:06:57.744Z,23.25
2017-10-26T18:09:24.513Z,23.35
2017-10-26T18:11:50.983Z,23.35
2017-10-26T18:14:17.668Z,23.37
2017-10-26T18:16:43.478Z,23.34
2017-10-26T18:19:09.250Z,23.39
2017-10-26T18:21:34.989Z,23.40
2017-10-26T18:24:00.747Z,23.35
2017-10-26T18:26:26.527Z,23.40
2017-10-26T18:28:53.261Z,23.36
2017-10-26T18:31:19.046Z,23.54
2017-10-26T18:33:45.571Z,23.51
2017-10-26T18:36:12.244Z,23.47
2017-10-26T18:38:38.805Z,23.42
2017-10-26T18:41:04.584Z,23.45
2017-10-26T18:43:30.423Z,23.38
2017-10-26T18:45:56.201Z,23.52
2017-10-26T18:48:21.980Z,23.51
2017-10-26T18:50:47.727Z,23.49
2017-10-26T18:53:13.947Z,23.46
2017-10-26T18:55:40.523Z,23.45
2017-10-26T18:58:07.265Z,23.41
2017-10-26T19:00:33.816Z,23.39
2017-10-26T19:02:59.691Z,23.42
2017-10-26T19:05:25.444Z,23.46
2017-10-26T19:07:51.196Z,23.38
2017-10-26T19:10:18.006Z,23.37
2017-10-26T19:12:43.770Z,23.35
2017-10-26T19:15:09.519Z,23.38
2017-10-26T19:17:35.312Z,23.39
2017-10-26T19:20:01.112Z,23.38
2017-10-26T19:22:26.876Z,23.37
2017-10-26T19:24:52.656Z,23.42
2017-10-26T19:27:19.361Z,23.42
2017-10-26T19:29:45.154Z,23.37
2017-10-26T19:32:10.903Z,23.35
2017-10-26T19:34:37.431Z,23.37
2017-10-26T19:37:03.223Z,23.33
2017-10-26T19:39:30.679Z,23.29
2017-10-26T19:41:57.450Z,23.36
2017-10-26T19:44:23.208Z,23.33
2017-10-26T19:46:49.043Z,23.36
2017-10-26T19:49:14.789Z,23.35
2017-10-26T19:51:40.684Z,23.34
2017-10-26T19:54:06.456Z,23.29
2017-10-26T19:56:32.333Z,23.29
2017-10-26T19:58:58.143Z,23.28
2017-10-26T20:01:23.964Z,23.33
2017-10-26T20:03:52.203Z,23.30
2017-10-26T20:06:17.965Z,23.28
2017-10-26T20:08:43.717Z,23.23
2017-10-26T20:11:09.475Z,23.23
2017-10-26T20:13:35.237Z,23.25
2017-10-26T20:16:01.127Z,23.25
2017-10-26T20:18:26.928Z,23.20
2017-10-26T20:20:52.897Z,23.16
2017-10-26T20:23:18.787Z,23.31
2017-10-26T20:25:44.612Z,23.39
2017-10-26T20:28:10.432Z,23.30
2017-10-26T20:30:36.191Z,23.21
2017-10-26T20:33:02.103Z,23.18
2017-10-26T20:35:27.995Z,23.15
2017-10-26T20:37:53.888Z,23.20
2017-10-26T20:40:25.158Z,23.23
2017-10-26T20:42:51.226Z,23.23
2017-10-26T20:45:17.111Z,23.21
2017-10-26T20:47:44.254Z,23.19
2017-10-26T20:50:16.627Z,23.31
2017-10-26T20:52:48.762Z,23.25
2017-10-26T20:55:23.269Z,23.23
2017-10-26T20:57:55.093Z,23.16
2017-10-26T21:00:26.903Z,23.21
2017-10-26T21:02:59.620Z,23.16
2017-10-26T21:05:31.616Z,23.11
2017-10-26T21:08:06.202Z,23.18
2017-10-26T21:10:38.229Z,23.09
2017-10-26T21:13:10.322Z,23.13
2017-10-26T21:15:36.097Z,23.15
2017-10-26T21:18:01.943Z,23.20
2017-10-26T21:20:28.298Z,23.24
2017-10-26T21:22:54.196Z,23.21
2017-10-26T21:25:20.996Z,23.24
2017-10-26T21:27:47.925Z,23.21
2017-10-26T21:30:13.817Z,23.14
2017-10-26T21:32:49.480Z,23.25
2017-10-26T21:35:15.607Z,23.23
2017-10-26T21:37:41.354Z,23.23
2017-10-26T21:40:17.378Z,23.25
2017-10-26T21:42:43.115Z,23.21
2017-10-26T21:45:08.890Z,23.23
2017-10-26T21:47:34.755Z,23.19
2017-10-26T21:50:01.396Z,23.13
2017-10-26T21:52:27.320Z,23.14
2017-10-26T21:54:53.246Z,23.16
2017-10-26T21:57:19.173Z,23.19
2017-10-26T21:59:44.986Z,23.17
2017-10-26T22:02:11.865Z,23.20
2017-10-26T22:04:37.636Z,23.20
2017-10-26T22:07:03.472Z,23.20
2017-10-26T22:09:29.264Z,23.23
2017-10-26T22:11:55.092Z,23.17
2017-10-26T22:14:20.844Z,23.19
2017-10-26T22:16:46.588Z,23.17
2017-10-26T22:19:12.324Z,23.25
2017-10-26T22:21:38.087Z,23.22
2017-10-26T22:24:03.839Z,23.24
2017-10-26T22:26:29.575Z,23.27
2017-10-26T22:28:55.313Z,23.19
2017-10-26T22:31:21.060Z,23.20
2017-10-26T22:33:48.861Z,23.21
2017-10-26T22:36:15.452Z,23.15
2017-10-26T22:38:41.733Z,23.24
2017-10-26T22:41:07.517Z,23.22
2017-10-26T22:43:33.260Z,23.28
2017-10-26T22:46:00.518Z,23.24
2017-10-26T22:48:27.403Z,23.24
2017-10-26T22:50:53.150Z,23.18
2017-10-26T22:53:18.907Z,23.27
2017-10-26T22:55:44.641Z,23.19
2017-10-26T22:58:10.382Z,23.24
2017-10-26T23:00:36.144Z,23.19
2017-10-26T23:03:01.879Z,23.24
2017-10-26T23:05:27.617Z,23.24
2017-10-26T23:07:53.360Z,23.28
2017-10-26T23:10:19.116Z,23.30
2017-10-26T23:12:44.860Z,23.34
2017-10-26T23:15:10.614Z,23.39
2017-10-26T23:17:36.435Z,23.39
2017-10-26T23:20:02.247Z,23.38
2017-10-26T23:22:27.988Z,23.37
2017-10-26T23:24:55.435Z,23.42
2017-10-26T23:27:22.159Z,23.33
2017-10-26T23:29:47.934Z,23.34
2017-10-26T23:32:13.679Z,23.30
2017-10-26T23:34:40.351Z,23.28
2017-10-26T23:37:06.092Z,23.28
2017-10-26T23:39:32.660Z,23.31
2017-10-26T23:41:58.400Z,23.36
2017-10-26T23:44:25.115Z,23.33
2017-10-26T23:46:51.885Z,23.38
2017-10-26T23:49:17.832Z,23.33
2017-10-26T23:51:44.200Z,23.31
2017-10-26T23:54:09.962Z,23.31
2017-10-26T23:56:35.713Z,23.34
2017-10-26T23:59:01.456Z,23.34
